Terminal Aerodrome Forecast
Issued by NWS

Current Version | Previous Version | Graphics & Text | Print | Product List | Glossary On
Versions: 1 2 3 4 5 6 7 8 9 10 11 12 13 14 15 16 17 18 19 20 21 22 23 24 25 26 27 28 29 30 31
000
FTUS41 KILN 180700 AAA
TAFLUK
TAF AMD
KLUK 180730Z 1808/1906 00000KT P6SM VCSH BKN025
      TEMPO 1808/1809 4SM BR
     FM180900 00000KT 4SM BR OVC015
     FM181100 00000KT 4SM BR VCSH OVC008
     FM181400 06003KT 5SM HZ VCSH OVC017
     FM181700 04005KT P6SM VCSH OVC025
     FM181900 01004KT P6SM BKN040
     FM190100 00000KT P6SM BKN100=

USA.gov is the U.S. government's official web portal to all federal, state and local government web resources and services.